createdAt,value
2019-03-26T18:08:08.664Z,8.83
2019-03-26T18:10:41.054Z,8.77
2019-03-26T18:13:13.451Z,8.73
2019-03-26T18:15:46.101Z,8.66
2019-03-26T18:18:19.732Z,8.57
2019-03-26T18:20:52.390Z,8.52
2019-03-26T18:23:24.894Z,8.48
2019-03-26T18:25:57.279Z,8.49
2019-03-26T18:28:29.738Z,8.49
2019-03-26T18:31:02.210Z,8.38
2019-03-26T18:33:34.744Z,8.32
2019-03-26T18:36:07.067Z,8.26
2019-03-26T18:38:39.429Z,8.23
2019-03-26T18:41:12.008Z,8.20
2019-03-26T18:43:44.493Z,8.19
2019-03-26T18:46:17.100Z,8.34
2019-03-26T18:48:51.463Z,8.48
2019-03-26T18:51:24.186Z,8.45
2019-03-26T18:53:56.743Z,8.39
2019-03-26T18:56:29.204Z,8.37
2019-03-26T18:59:01.874Z,8.36
2019-03-26T19:01:34.372Z,8.42
2019-03-26T19:04:07.043Z,8.46
2019-03-26T19:06:39.496Z,8.41
2019-03-26T19:09:11.880Z,8.31
2019-03-26T19:11:44.521Z,8.35
2019-03-26T19:14:16.829Z,8.47
2019-03-26T19:16:49.086Z,8.75
2019-03-26T19:19:22.902Z,9.05
2019-03-26T19:21:55.280Z,9.11
2019-03-26T19:24:27.623Z,8.90
2019-03-26T19:27:00.664Z,8.73
2019-03-26T19:29:33.297Z,8.52
2019-03-26T19:32:05.739Z,8.40
2019-03-26T19:34:38.396Z,8.35
2019-03-26T19:37:11.425Z,8.30
2019-03-26T19:39:43.808Z,8.34
2019-03-26T19:42:15.916Z,8.28
2019-03-26T19:44:48.497Z,8.23
2019-03-26T19:47:20.871Z,8.20
2019-03-26T19:49:53.217Z,8.21
2019-03-26T19:52:25.615Z,8.22
2019-03-26T19:55:00.770Z,8.17
2019-03-26T19:57:31.988Z,8.11
2019-03-26T20:00:04.373Z,8.10
2019-03-26T20:02:36.908Z,8.12
2019-03-26T20:05:10.478Z,8.14
2019-03-26T20:07:42.882Z,8.16
2019-03-26T20:10:15.527Z,8.15
2019-03-26T20:12:47.982Z,8.16
2019-03-26T20:15:20.209Z,8.15
2019-03-26T20:17:52.249Z,8.12
2019-03-26T20:20:24.511Z,8.11
2019-03-26T20:22:56.809Z,8.14
2019-03-26T20:25:29.106Z,8.13
2019-03-26T20:28:01.284Z,8.13
2019-03-26T20:30:33.592Z,8.16
2019-03-26T20:33:06.120Z,8.16
2019-03-26T20:35:38.465Z,8.14
2019-03-26T20:38:11.366Z,8.09
2019-03-26T20:40:43.543Z,8.13
2019-03-26T20:43:16.429Z,8.10
2019-03-26T20:45:49.000Z,8.09
2019-03-26T20:48:21.602Z,8.08
2019-03-26T20:50:57.079Z,8.07
2019-03-26T20:53:28.072Z,8.10
2019-03-26T20:56:00.423Z,8.10
2019-03-26T20:58:32.535Z,8.08
2019-03-26T21:01:04.872Z,8.09
2019-03-26T21:03:37.225Z,8.12
2019-03-26T21:06:09.546Z,8.11
2019-03-26T21:08:42.051Z,8.10
2019-03-26T21:11:14.574Z,8.14
2019-03-26T21:13:51.001Z,8.13
2019-03-26T21:16:21.145Z,8.15
2019-03-26T21:18:53.416Z,8.11
2019-03-26T21:21:25.665Z,8.08
2019-03-26T21:23:59.039Z,8.04
2019-03-26T21:26:31.322Z,8.06
2019-03-26T21:29:03.629Z,8.06
2019-03-26T21:31:35.906Z,8.07
2019-03-26T21:34:08.129Z,8.08
2019-03-26T21:36:40.512Z,8.05
2019-03-26T21:39:12.777Z,8.00
2019-03-26T21:41:45.289Z,8.01
2019-03-26T21:44:17.522Z,7.99
2019-03-26T21:46:49.820Z,7.99
2019-03-26T21:49:22.181Z,8.00
2019-03-26T21:51:54.273Z,8.00
2019-03-26T21:54:27.102Z,7.96
2019-03-26T21:56:59.534Z,7.95
2019-03-26T21:59:32.019Z,7.94
2019-03-26T22:02:04.336Z,7.89
2019-03-26T22:04:36.603Z,7.83
2019-03-26T22:07:09.497Z,7.79
2019-03-26T22:09:41.834Z,7.78
2019-03-26T22:12:14.238Z,7.77
2019-03-26T22:14:46.778Z,7.82
2019-03-26T22:17:19.134Z,7.87
2019-03-26T22:19:52.062Z,7.92
2019-03-26T22:22:24.680Z,7.95
2019-03-26T22:24:57.270Z,7.97
2019-03-26T22:27:29.848Z,7.96
2019-03-26T22:30:02.447Z,7.92
2019-03-26T22:32:35.227Z,7.88
2019-03-26T22:35:07.918Z,7.89
2019-03-26T22:37:40.302Z,7.88
2019-03-26T22:40:13.054Z,7.89
2019-03-26T22:42:45.217Z,7.88
2019-03-26T22:45:19.561Z,7.85
2019-03-26T22:47:51.842Z,7.84
2019-03-26T22:50:24.317Z,7.83
2019-03-26T22:52:56.763Z,7.90
2019-03-26T22:55:29.115Z,7.90
2019-03-26T22:58:01.421Z,7.94
2019-03-26T23:00:33.699Z,7.95
2019-03-26T23:03:07.627Z,7.96
2019-03-26T23:05:41.011Z,7.94
2019-03-26T23:08:13.442Z,7.89
2019-03-26T23:10:45.901Z,7.90
2019-03-26T23:13:18.261Z,7.91
2019-03-26T23:15:50.992Z,7.93
2019-03-26T23:18:23.280Z,7.92
2019-03-26T23:20:55.949Z,7.91
2019-03-26T23:23:28.279Z,7.91
2019-03-26T23:26:00.762Z,7.92
2019-03-26T23:28:32.988Z,7.96
2019-03-26T23:31:05.561Z,7.95
2019-03-26T23:33:37.892Z,7.90
2019-03-26T23:36:12.100Z,7.88
2019-03-26T23:38:44.453Z,7.88
2019-03-26T23:41:16.799Z,7.88
2019-03-26T23:43:49.151Z,7.87
2019-03-26T23:46:21.529Z,7.91
2019-03-26T23:48:53.940Z,8.00
2019-03-26T23:51:26.163Z,8.03
2019-03-26T23:53:58.404Z,8.02
2019-03-26T23:56:30.646Z,7.93
2019-03-26T23:59:03.179Z,7.90
